sensor_id;sensor_type;location;lat;lon;timestamp;pressure;altitude;pressure_sealevel;temperature;humidity
47750;BME280;49810;48.160;10.812;2022-11-28T00:01:40;95262.59;;;0.20;93.37
47750;BME280;49810;48.160;10.812;2022-11-28T00:04:11;95272.72;;;0.30;93.20
47750;BME280;49810;48.160;10.812;2022-11-28T00:06:42;95250.13;;;0.30;93.21
47750;BME280;49810;48.160;10.812;2022-11-28T00:09:13;95250.38;;;0.35;93.11
47750;BME280;49810;48.160;10.812;2022-11-28T00:11:43;95251.97;;;0.36;93.04
47750;BME280;49810;48.160;10.812;2022-11-28T00:14:12;95247.69;;;0.28;92.93
47750;BME280;49810;48.160;10.812;2022-11-28T00:16:41;95234.53;;;0.30;93.08
47750;BME280;49810;48.160;10.812;2022-11-28T00:19:12;95220.34;;;0.32;93.11
47750;BME280;49810;48.160;10.812;2022-11-28T00:21:40;95225.19;;;0.36;92.81
47750;BME280;49810;48.160;10.812;2022-11-28T00:24:08;95228.06;;;0.26;92.93
47750;BME280;49810;48.160;10.812;2022-11-28T00:26:39;95234.75;;;0.14;93.04
47750;BME280;49810;48.160;10.812;2022-11-28T00:29:08;95249.59;;;0.20;93.06
47750;BME280;49810;48.160;10.812;2022-11-28T00:31:39;95239.81;;;0.22;92.88
47750;BME280;49810;48.160;10.812;2022-11-28T00:34:13;95222.34;;;0.31;92.85
47750;BME280;49810;48.160;10.812;2022-11-28T00:36:43;95216.56;;;0.35;92.38
47750;BME280;49810;48.160;10.812;2022-11-28T00:39:11;95216.16;;;0.32;92.41
47750;BME280;49810;48.160;10.812;2022-11-28T00:41:40;95199.28;;;0.28;92.43
47750;BME280;49810;48.160;10.812;2022-11-28T00:44:09;95191.31;;;0.29;92.52
47750;BME280;49810;48.160;10.812;2022-11-28T00:46:37;95192.94;;;0.30;92.64
47750;BME280;49810;48.160;10.812;2022-11-28T00:49:05;95198.75;;;0.32;92.75
47750;BME280;49810;48.160;10.812;2022-11-28T00:51:35;95206.69;;;0.45;92.57
47750;BME280;49810;48.160;10.812;2022-11-28T00:54:05;95222.16;;;0.32;92.37
47750;BME280;49810;48.160;10.812;2022-11-28T00:56:35;95215.16;;;0.32;92.52
47750;BME280;49810;48.160;10.812;2022-11-28T00:59:04;95212.94;;;0.51;92.31
47750;BME280;49810;48.160;10.812;2022-11-28T01:01:37;95212.88;;;0.44;92.12
47750;BME280;49810;48.160;10.812;2022-11-28T01:04:07;95210.66;;;0.41;92.36
47750;BME280;49810;48.160;10.812;2022-11-28T01:06:39;95204.34;;;0.50;92.47
47750;BME280;49810;48.160;10.812;2022-11-28T01:09:10;95209.16;;;0.53;92.14
47750;BME280;49810;48.160;10.812;2022-11-28T01:11:40;95203.13;;;0.46;92.04
47750;BME280;49810;48.160;10.812;2022-11-28T01:14:11;95213.25;;;0.41;92.22
47750;BME280;49810;48.160;10.812;2022-11-28T01:16:39;95218.72;;;0.46;92.13
47750;BME280;49810;48.160;10.812;2022-11-28T01:19:08;95212.09;;;0.44;92.00
47750;BME280;49810;48.160;10.812;2022-11-28T01:21:37;95210.47;;;0.43;92.09
47750;BME280;49810;48.160;10.812;2022-11-28T01:24:06;95211.59;;;0.55;92.11
47750;BME280;49810;48.160;10.812;2022-11-28T01:26:34;95196.09;;;0.47;92.16
47750;BME280;49810;48.160;10.812;2022-11-28T01:29:04;95196.56;;;0.50;91.78
47750;BME280;49810;48.160;10.812;2022-11-28T01:31:32;95186.50;;;0.47;92.34
47750;BME280;49810;48.160;10.812;2022-11-28T01:34:00;95185.59;;;0.55;92.27
47750;BME280;49810;48.160;10.812;2022-11-28T01:36:29;95193.28;;;0.63;92.17
47750;BME280;49810;48.160;10.812;2022-11-28T01:38:58;95190.53;;;0.50;92.05
47750;BME280;49810;48.160;10.812;2022-11-28T01:41:27;95188.75;;;0.50;92.01
47750;BME280;49810;48.160;10.812;2022-11-28T01:44:07;95188.00;;;0.56;91.98
47750;BME280;49810;48.160;10.812;2022-11-28T01:46:36;95174.44;;;0.61;92.00
47750;BME280;49810;48.160;10.812;2022-11-28T01:49:11;95169.16;;;0.54;92.06
47750;BME280;49810;48.160;10.812;2022-11-28T01:51:43;95165.78;;;0.54;91.67
47750;BME280;49810;48.160;10.812;2022-11-28T01:54:15;95155.66;;;0.44;92.21
47750;BME280;49810;48.160;10.812;2022-11-28T01:56:48;95160.88;;;0.44;92.35
47750;BME280;49810;48.160;10.812;2022-11-28T01:59:18;95181.13;;;0.49;92.44
47750;BME280;49810;48.160;10.812;2022-11-28T02:01:48;95180.88;;;0.44;92.47
47750;BME280;49810;48.160;10.812;2022-11-28T02:04:17;95193.81;;;0.58;92.30
47750;BME280;49810;48.160;10.812;2022-11-28T02:06:45;95185.13;;;1.14;90.99
47750;BME280;49810;48.160;10.812;2022-11-28T02:09:15;95188.13;;;0.69;90.49
47750;BME280;49810;48.160;10.812;2022-11-28T02:12:04;95187.63;;;1.29;89.34
47750;BME280;49810;48.160;10.812;2022-11-28T02:14:54;95182.13;;;0.90;89.24
47750;BME280;49810;48.160;10.812;2022-11-28T02:17:37;95169.56;;;0.51;90.82
47750;BME280;49810;48.160;10.812;2022-11-28T02:20:30;95157.97;;;0.54;91.65
47750;BME280;49810;48.160;10.812;2022-11-28T02:23:08;95159.88;;;0.45;91.75
47750;BME280;49810;48.160;10.812;2022-11-28T02:26:04;95156.47;;;0.66;91.74
47750;BME280;49810;48.160;10.812;2022-11-28T02:29:01;95139.59;;;0.55;92.08
47750;BME280;49810;48.160;10.812;2022-11-28T02:32:02;95139.47;;;0.42;92.16
47750;BME280;49810;48.160;10.812;2022-11-28T02:34:39;95088.06;;;0.44;92.48
47750;BME280;49810;48.160;10.812;2022-11-28T02:37:20;95089.59;;;0.60;92.54
47750;BME280;49810;48.160;10.812;2022-11-28T02:39:55;95095.25;;;0.42;92.34
47750;BME280;49810;48.160;10.812;2022-11-28T02:42:32;95113.34;;;0.78;92.06
47750;BME280;49810;48.160;10.812;2022-11-28T02:45:06;95117.38;;;0.53;91.99
47750;BME280;49810;48.160;10.812;2022-11-28T02:47:42;95153.56;;;0.96;91.66
47750;BME280;49810;48.160;10.812;2022-11-28T02:50:16;95116.31;;;0.96;89.74
47750;BME280;49810;48.160;10.812;2022-11-28T02:52:48;95115.97;;;0.57;91.13
47750;BME280;49810;48.160;10.812;2022-11-28T02:55:18;95093.69;;;0.47;91.72
47750;BME280;49810;48.160;10.812;2022-11-28T02:57:48;95085.84;;;0.41;92.10
47750;BME280;49810;48.160;10.812;2022-11-28T03:00:23;95079.47;;;0.44;92.47
47750;BME280;49810;48.160;10.812;2022-11-28T03:03:03;95058.75;;;0.57;92.41
47750;BME280;49810;48.160;10.812;2022-11-28T03:05:39;95049.69;;;0.46;92.10
47750;BME280;49810;48.160;10.812;2022-11-28T03:08:20;95052.91;;;0.48;92.51
47750;BME280;49810;48.160;10.812;2022-11-28T03:10:57;95040.53;;;0.50;92.46
47750;BME280;49810;48.160;10.812;2022-11-28T03:13:34;95031.78;;;0.58;91.99
47750;BME280;49810;48.160;10.812;2022-11-28T03:16:13;95028.13;;;0.52;92.02
47750;BME280;49810;48.160;10.812;2022-11-28T03:18:54;95026.53;;;0.51;92.15
47750;BME280;49810;48.160;10.812;2022-11-28T03:21:34;95041.50;;;0.49;92.29
47750;BME280;49810;48.160;10.812;2022-11-28T03:24:05;95045.81;;;0.63;92.18
47750;BME280;49810;48.160;10.812;2022-11-28T03:26:44;95040.94;;;0.54;91.67
47750;BME280;49810;48.160;10.812;2022-11-28T03:29:17;95028.31;;;0.51;92.15
47750;BME280;49810;48.160;10.812;2022-11-28T03:31:51;95008.94;;;0.53;92.02
47750;BME280;49810;48.160;10.812;2022-11-28T03:34:24;95000.72;;;0.50;92.25
47750;BME280;49810;48.160;10.812;2022-11-28T03:36:59;95008.16;;;0.53;92.14
47750;BME280;49810;48.160;10.812;2022-11-28T03:39:33;95104.16;;;1.03;91.73
47750;BME280;49810;48.160;10.812;2022-11-28T03:42:07;95086.28;;;1.27;89.52
47750;BME280;49810;48.160;10.812;2022-11-28T03:44:40;95116.72;;;1.27;89.13
47750;BME280;49810;48.160;10.812;2022-11-28T03:47:10;95114.97;;;1.06;89.47
47750;BME280;49810;48.160;10.812;2022-11-28T03:49:42;95126.63;;;1.10;89.96
47750;BME280;49810;48.160;10.812;2022-11-28T03:52:16;95123.56;;;1.00;90.32
47750;BME280;49810;48.160;10.812;2022-11-28T03:54:51;95125.03;;;1.16;90.10
47750;BME280;49810;48.160;10.812;2022-11-28T03:57:22;95118.13;;;1.02;89.66
47750;BME280;49810;48.160;10.812;2022-11-28T03:59:52;95110.03;;;0.90;90.57
47750;BME280;49810;48.160;10.812;2022-11-28T04:02:28;95110.38;;;1.08;90.42
47750;BME280;49810;48.160;10.812;2022-11-28T04:05:02;95101.81;;;0.87;90.66
47750;BME280;49810;48.160;10.812;2022-11-28T04:07:36;95087.75;;;0.54;91.95
47750;BME280;49810;48.160;10.812;2022-11-28T04:10:12;95081.13;;;0.51;92.02
47750;BME280;49810;48.160;10.812;2022-11-28T04:12:52;95082.56;;;0.54;92.63
47750;BME280;49810;48.160;10.812;2022-11-28T04:15:28;95076.19;;;0.56;92.88
47750;BME280;49810;48.160;10.812;2022-11-28T04:17:59;95094.03;;;0.59;92.86
47750;BME280;49810;48.160;10.812;2022-11-28T04:20:35;95071.63;;;0.65;92.65
47750;BME280;49810;48.160;10.812;2022-11-28T04:23:09;95077.78;;;0.57;92.87
47750;BME280;49810;48.160;10.812;2022-11-28T04:25:42;95091.59;;;0.58;92.73
47750;BME280;49810;48.160;10.812;2022-11-28T04:28:16;95095.38;;;0.55;93.09
47750;BME280;49810;48.160;10.812;2022-11-28T04:30:48;95096.28;;;0.69;92.79
47750;BME280;49810;48.160;10.812;2022-11-28T04:33:19;95113.88;;;0.67;92.85
47750;BME280;49810;48.160;10.812;2022-11-28T04:35:51;95096.66;;;0.66;92.69
47750;BME280;49810;48.160;10.812;2022-11-28T04:38:22;95089.66;;;0.66;92.79
47750;BME280;49810;48.160;10.812;2022-11-28T04:41:01;95096.44;;;0.88;92.74
47750;BME280;49810;48.160;10.812;2022-11-28T04:43:34;95107.50;;;0.69;92.59
47750;BME280;49810;48.160;10.812;2022-11-28T04:46:05;95088.84;;;0.66;92.69
47750;BME280;49810;48.160;10.812;2022-11-28T04:48:36;95083.03;;;0.64;92.76
47750;BME280;49810;48.160;10.812;2022-11-28T04:51:14;95077.03;;;0.63;92.85
47750;BME280;49810;48.160;10.812;2022-11-28T04:53:47;95070.84;;;0.64;93.02
47750;BME280;49810;48.160;10.812;2022-11-28T04:56:21;95060.88;;;0.68;92.93
47750;BME280;49810;48.160;10.812;2022-11-28T04:58:51;95051.28;;;0.68;92.87
47750;BME280;49810;48.160;10.812;2022-11-28T05:01:23;95054.28;;;0.72;92.99
47750;BME280;49810;48.160;10.812;2022-11-28T05:03:53;95038.88;;;0.70;93.03
47750;BME280;49810;48.160;10.812;2022-11-28T05:06:25;95043.06;;;0.71;92.82
47750;BME280;49810;48.160;10.812;2022-11-28T05:08:54;95029.06;;;0.72;93.07
47750;BME280;49810;48.160;10.812;2022-11-28T05:11:22;95024.69;;;0.73;92.98
47750;BME280;49810;48.160;10.812;2022-11-28T05:13:51;95012.09;;;0.76;92.91
47750;BME280;49810;48.160;10.812;2022-11-28T05:16:19;95007.88;;;0.75;92.93
47750;BME280;49810;48.160;10.812;2022-11-28T05:18:48;95008.75;;;0.82;92.99
47750;BME280;49810;48.160;10.812;2022-11-28T05:21:16;95021.13;;;0.80;92.71
47750;BME280;49810;48.160;10.812;2022-11-28T05:23:46;95029.09;;;0.79;93.11
47750;BME280;49810;48.160;10.812;2022-11-28T05:26:16;95039.69;;;1.05;93.05
47750;BME280;49810;48.160;10.812;2022-11-28T05:28:45;95030.16;;;1.18;91.29
47750;BME280;49810;48.160;10.812;2022-11-28T05:31:14;95029.44;;;0.97;91.67
47750;BME280;49810;48.160;10.812;2022-11-28T05:33:42;95022.53;;;0.83;92.20
47750;BME280;49810;48.160;10.812;2022-11-28T05:36:12;95005.91;;;0.84;92.37
47750;BME280;49810;48.160;10.812;2022-11-28T05:38:42;95006.56;;;0.86;92.47
47750;BME280;49810;48.160;10.812;2022-11-28T05:41:19;95015.97;;;0.87;92.54
47750;BME280;49810;48.160;10.812;2022-11-28T05:43:47;95023.91;;;0.79;92.37
47750;BME280;49810;48.160;10.812;2022-11-28T05:46:15;95006.56;;;0.86;92.68
47750;BME280;49810;48.160;10.812;2022-11-28T05:48:44;95003.56;;;0.89;92.54
47750;BME280;49810;48.160;10.812;2022-11-28T05:51:12;95014.84;;;1.49;91.88
47750;BME280;49810;48.160;10.812;2022-11-28T05:53:40;94989.69;;;1.09;91.34
47750;BME280;49810;48.160;10.812;2022-11-28T05:56:09;94994.81;;;0.96;91.81
47750;BME280;49810;48.160;10.812;2022-11-28T05:58:39;95002.47;;;1.58;91.06
47750;BME280;49810;48.160;10.812;2022-11-28T06:01:09;95003.59;;;1.36;89.96
47750;BME280;49810;48.160;10.812;2022-11-28T06:03:38;94985.44;;;1.08;91.13
47750;BME280;49810;48.160;10.812;2022-11-28T06:06:14;95006.25;;;1.08;91.44
47750;BME280;49810;48.160;10.812;2022-11-28T06:08:43;95014.72;;;1.70;90.34
47750;BME280;49810;48.160;10.812;2022-11-28T06:11:12;95022.84;;;1.41;90.20
47750;BME280;49810;48.160;10.812;2022-11-28T06:13:43;95027.78;;;1.77;89.37
47750;BME280;49810;48.160;10.812;2022-11-28T06:16:17;95014.91;;;1.62;89.78
47750;BME280;49810;48.160;10.812;2022-11-28T06:18:46;95027.25;;;1.41;89.88
47750;BME280;49810;48.160;10.812;2022-11-28T06:21:14;95035.75;;;1.15;90.67
47750;BME280;49810;48.160;10.812;2022-11-28T06:23:42;95029.03;;;1.40;92.03
47750;BME280;49810;48.160;10.812;2022-11-28T06:26:12;95037.44;;;1.36;92.08
47750;BME280;49810;48.160;10.812;2022-11-28T06:28:42;95047.25;;;1.87;90.27
47750;BME280;49810;48.160;10.812;2022-11-28T06:31:11;95053.31;;;2.01;88.40
47750;BME280;49810;48.160;10.812;2022-11-28T06:33:41;95047.25;;;1.87;88.13
47750;BME280;49810;48.160;10.812;2022-11-28T06:36:11;95046.91;;;1.43;90.07
47750;BME280;49810;48.160;10.812;2022-11-28T06:38:41;95038.22;;;1.77;89.57
47750;BME280;49810;48.160;10.812;2022-11-28T06:41:11;95038.00;;;1.72;90.59
47750;BME280;49810;48.160;10.812;2022-11-28T06:43:39;95024.66;;;1.41;90.84
47750;BME280;49810;48.160;10.812;2022-11-28T06:46:11;95018.22;;;1.37;91.12
47750;BME280;49810;48.160;10.812;2022-11-28T06:48:42;95028.00;;;1.28;91.43
47750;BME280;49810;48.160;10.812;2022-11-28T06:51:11;95013.16;;;1.29;91.73
47750;BME280;49810;48.160;10.812;2022-11-28T06:53:40;95010.69;;;1.61;91.99
47750;BME280;49810;48.160;10.812;2022-11-28T06:56:10;95011.66;;;1.47;91.54
47750;BME280;49810;48.160;10.812;2022-11-28T06:58:40;95020.06;;;1.49;91.47
47750;BME280;49810;48.160;10.812;2022-11-28T07:01:12;95021.88;;;1.49;91.47
47750;BME280;49810;48.160;10.812;2022-11-28T07:03:41;95009.63;;;1.43;91.30
47750;BME280;49810;48.160;10.812;2022-11-28T07:06:09;95012.31;;;1.69;91.48
47750;BME280;49810;48.160;10.812;2022-11-28T07:08:38;95008.72;;;1.70;91.41
47750;BME280;49810;48.160;10.812;2022-11-28T07:11:08;95018.88;;;1.45;91.03
47750;BME280;49810;48.160;10.812;2022-11-28T07:13:37;95017.69;;;1.48;91.25
47750;BME280;49810;48.160;10.812;2022-11-28T07:16:06;95018.28;;;1.50;91.22
47750;BME280;49810;48.160;10.812;2022-11-28T07:18:36;95005.31;;;1.69;91.26
47750;BME280;49810;48.160;10.812;2022-11-28T07:21:04;95002.66;;;1.50;91.01
47750;BME280;49810;48.160;10.812;2022-11-28T07:23:36;95020.06;;;1.49;90.98
47750;BME280;49810;48.160;10.812;2022-11-28T07:26:05;95012.09;;;1.57;91.02
47750;BME280;49810;48.160;10.812;2022-11-28T07:28:33;95014.72;;;1.70;90.90
47750;BME280;49810;48.160;10.812;2022-11-28T07:31:03;95009.16;;;1.80;90.56
47750;BME280;49810;48.160;10.812;2022-11-28T07:33:33;95004.91;;;1.79;90.55
47750;BME280;49810;48.160;10.812;2022-11-28T07:36:05;95013.97;;;1.89;90.75
47750;BME280;49810;48.160;10.812;2022-11-28T07:38:33;95006.34;;;1.81;90.32
47750;BME280;49810;48.160;10.812;2022-11-28T07:41:03;95017.56;;;1.82;90.42
47750;BME280;49810;48.160;10.812;2022-11-28T07:43:31;95013.75;;;1.84;90.21
47750;BME280;49810;48.160;10.812;2022-11-28T07:46:01;95017.34;;;1.77;89.81
47750;BME280;49810;48.160;10.812;2022-11-28T07:48:30;95013.38;;;1.87;89.89
47750;BME280;49810;48.160;10.812;2022-11-28T07:50:58;95017.97;;;1.85;89.98
47750;BME280;49810;48.160;10.812;2022-11-28T07:53:28;95013.16;;;1.82;90.42
47750;BME280;49810;48.160;10.812;2022-11-28T07:56:00;95009.72;;;1.75;90.42
47750;BME280;49810;48.160;10.812;2022-11-28T07:58:28;95021.78;;;1.89;90.21
47750;BME280;49810;48.160;10.812;2022-11-28T08:00:57;95013.97;;;1.89;89.86
47750;BME280;49810;48.160;10.812;2022-11-28T08:03:25;95014.41;;;2.06;89.93
47750;BME280;49810;48.160;10.812;2022-11-28T08:05:59;95004.19;;;2.04;89.87
47750;BME280;49810;48.160;10.812;2022-11-28T08:08:30;95010.41;;;2.16;89.59
47750;BME280;49810;48.160;10.812;2022-11-28T08:10:59;94999.19;;;2.03;89.26
47750;BME280;49810;48.160;10.812;2022-11-28T08:13:29;95008.81;;;2.09;89.16
47750;BME280;49810;48.160;10.812;2022-11-28T08:15:57;95001.00;;;2.22;89.03
47750;BME280;49810;48.160;10.812;2022-11-28T08:18:25;94996.78;;;2.27;88.32
47750;BME280;49810;48.160;10.812;2022-11-28T08:21:02;94994.59;;;2.37;88.45
47750;BME280;49810;48.160;10.812;2022-11-28T08:23:34;94989.38;;;2.44;88.81
47750;BME280;49810;48.160;10.812;2022-11-28T08:26:03;94992.56;;;2.26;88.74
47750;BME280;49810;48.160;10.812;2022-11-28T08:28:33;94995.38;;;2.38;88.71
47750;BME280;49810;48.160;10.812;2022-11-28T08:31:08;95002.81;;;2.67;88.55
47750;BME280;49810;48.160;10.812;2022-11-28T08:33:37;94999.81;;;2.57;87.57
47750;BME280;49810;48.160;10.812;2022-11-28T08:36:06;94993.56;;;2.71;86.51
47750;BME280;49810;48.160;10.812;2022-11-28T08:38:37;95001.19;;;2.72;86.57
47750;BME280;49810;48.160;10.812;2022-11-28T08:41:08;94998.34;;;2.87;86.04
47750;BME280;49810;48.160;10.812;2022-11-28T08:43:37;94994.53;;;2.76;86.46
47750;BME280;49810;48.160;10.812;2022-11-28T08:46:08;94999.16;;;2.87;86.69
47750;BME280;49810;48.160;10.812;2022-11-28T08:48:38;94994.72;;;2.94;86.86
47750;BME280;49810;48.160;10.812;2022-11-28T08:51:11;94997.97;;;2.77;85.90
47750;BME280;49810;48.160;10.812;2022-11-28T08:53:42;95000.19;;;2.73;87.15
47750;BME280;49810;48.160;10.812;2022-11-28T08:56:17;95004.19;;;2.76;87.14
47750;BME280;49810;48.160;10.812;2022-11-28T08:58:45;95001.56;;;2.89;86.53
47750;BME280;49810;48.160;10.812;2022-11-28T09:01:14;95003.81;;;2.72;88.05
47750;BME280;49810;48.160;10.812;2022-11-28T09:03:45;95000.09;;;3.06;87.40
47750;BME280;49810;48.160;10.812;2022-11-28T09:06:15;94998.91;;;3.08;86.28
47750;BME280;49810;48.160;10.812;2022-11-28T09:08:45;95007.94;;;3.12;86.84
47750;BME280;49810;48.160;10.812;2022-11-28T09:11:18;95003.69;;;3.18;86.78
47750;BME280;49810;48.160;10.812;2022-11-28T09:13:47;95007.50;;;3.22;85.57
47750;BME280;49810;48.160;10.812;2022-11-28T09:16:16;95004.09;;;3.21;86.08
47750;BME280;49810;48.160;10.812;2022-11-28T09:18:44;95008.88;;;3.31;86.69
47750;BME280;49810;48.160;10.812;2022-11-28T09:21:14;95003.25;;;3.34;86.38
47750;BME280;49810;48.160;10.812;2022-11-28T09:23:45;95014.09;;;3.37;86.14
47750;BME280;49810;48.160;10.812;2022-11-28T09:26:15;94996.72;;;3.56;85.60
47750;BME280;49810;48.160;10.812;2022-11-28T09:28:44;95006.78;;;3.96;83.59
47750;BME280;49810;48.160;10.812;2022-11-28T09:31:15;95009.25;;;3.85;84.49
47750;BME280;49810;48.160;10.812;2022-11-28T09:33:44;95006.78;;;3.96;83.43
47750;BME280;49810;48.160;10.812;2022-11-28T09:36:15;95000.50;;;4.04;83.04
47750;BME280;49810;48.160;10.812;2022-11-28T09:38:43;95000.94;;;4.56;82.30
47750;BME280;49810;48.160;10.812;2022-11-28T09:44:19;94998.63;;;5.09;79.17
47750;BME280;49810;48.160;10.812;2022-11-28T09:46:51;95002.94;;;5.21;78.42
47750;BME280;49810;48.160;10.812;2022-11-28T09:49:31;94997.03;;;5.08;78.84
47750;BME280;49810;48.160;10.812;2022-11-28T09:52:24;95008.16;;;4.85;78.54
47750;BME280;49810;48.160;10.812;2022-11-28T09:55:00;94990.41;;;4.63;79.86
47750;BME280;49810;48.160;10.812;2022-11-28T09:57:35;94995.53;;;5.18;77.92
47750;BME280;49810;48.160;10.812;2022-11-28T10:00:05;94982.91;;;5.09;79.03
47750;BME280;49810;48.160;10.812;2022-11-28T10:02:42;94991.31;;;5.17;78.39
47750;BME280;49810;48.160;10.812;2022-11-28T10:05:19;94990.72;;;5.33;78.50
47750;BME280;49810;48.160;10.812;2022-11-28T10:08:00;94996.97;;;5.32;77.77
47750;BME280;49810;48.160;10.812;2022-11-28T10:10:37;94995.19;;;5.33;78.00
47750;BME280;49810;48.160;10.812;2022-11-28T10:13:12;94995.25;;;5.44;77.85
47750;BME280;49810;48.160;10.812;2022-11-28T10:15:49;94996.38;;;5.48;77.84
47750;BME280;49810;48.160;10.812;2022-11-28T10:18:32;94996.91;;;5.57;78.15
47750;BME280;49810;48.160;10.812;2022-11-28T10:21:03;94999.09;;;5.06;79.60
47750;BME280;49810;48.160;10.812;2022-11-28T10:23:39;94995.47;;;5.43;79.45
47750;BME280;49810;48.160;10.812;2022-11-28T10:26:16;94990.47;;;5.71;78.69
47750;BME280;49810;48.160;10.812;2022-11-28T10:28:51;94992.19;;;5.77;78.48
47750;BME280;49810;48.160;10.812;2022-11-28T10:31:28;94994.19;;;5.63;76.72
47750;BME280;49810;48.160;10.812;2022-11-28T10:34:01;94972.22;;;5.46;77.68
47750;BME280;49810;48.160;10.812;2022-11-28T10:36:39;94972.09;;;5.89;77.73
47750;BME280;49810;48.160;10.812;2022-11-28T10:39:13;94969.41;;;6.36;75.36
47750;BME280;49810;48.160;10.812;2022-11-28T10:41:46;94966.72;;;6.77;73.23
47750;BME280;49810;48.160;10.812;2022-11-28T10:44:41;94975.72;;;6.70;72.81
47750;BME280;49810;48.160;10.812;2022-11-28T10:47:18;94955.84;;;6.62;72.80
47750;BME280;49810;48.160;10.812;2022-11-28T10:49:54;94979.84;;;6.66;73.63
47750;BME280;49810;48.160;10.812;2022-11-28T10:52:29;94970.00;;;6.61;74.34
47750;BME280;49810;48.160;10.812;2022-11-28T10:55:20;94964.63;;;6.68;73.88
47750;BME280;49810;48.160;10.812;2022-11-28T10:57:55;94965.94;;;6.24;74.75
47750;BME280;49810;48.160;10.812;2022-11-28T11:00:29;94972.66;;;5.91;76.22
47750;BME280;49810;48.160;10.812;2022-11-28T11:03:00;94960.00;;;6.17;75.11
47750;BME280;49810;48.160;10.812;2022-11-28T11:05:30;94960.94;;;6.34;74.64
47750;BME280;49810;48.160;10.812;2022-11-28T11:08:02;94965.84;;;6.31;74.13
47750;BME280;49810;48.160;10.812;2022-11-28T11:10:35;94964.97;;;6.07;75.14
47750;BME280;49810;48.160;10.812;2022-11-28T11:13:12;94954.09;;;5.92;76.29
47750;BME280;49810;48.160;10.812;2022-11-28T11:15:45;94959.13;;;5.94;75.23
47750;BME280;49810;48.160;10.812;2022-11-28T11:18:22;94967.44;;;5.91;76.03
47750;BME280;49810;48.160;10.812;2022-11-28T11:21:05;94957.06;;;5.96;75.92
47750;BME280;49810;48.160;10.812;2022-11-28T11:23:34;94964.63;;;6.04;76.55
47750;BME280;49810;48.160;10.812;2022-11-28T11:26:04;94959.53;;;6.20;76.91
47750;BME280;49810;48.160;10.812;2022-11-28T11:28:41;94948.28;;;6.43;75.48
47750;BME280;49810;48.160;10.812;2022-11-28T11:31:23;94960.59;;;6.42;75.42
47750;BME280;49810;48.160;10.812;2022-11-28T11:34:00;94963.44;;;6.29;74.62
47750;BME280;49810;48.160;10.812;2022-11-28T11:36:31;94954.53;;;6.19;74.69
47750;BME280;49810;48.160;10.812;2022-11-28T11:39:14;94952.59;;;6.26;75.70
47750;BME280;49810;48.160;10.812;2022-11-28T11:41:45;94954.56;;;6.30;75.92
47750;BME280;49810;48.160;10.812;2022-11-28T11:44:29;94953.41;;;6.26;76.73
47750;BME280;49810;48.160;10.812;2022-11-28T11:47:03;94948.81;;;6.22;76.37
47750;BME280;49810;48.160;10.812;2022-11-28T11:49:33;94958.69;;;6.38;75.54
47750;BME280;49810;48.160;10.812;2022-11-28T11:52:05;94943.72;;;6.50;75.25
47750;BME280;49810;48.160;10.812;2022-11-28T11:54:35;94958.94;;;6.59;75.23
47750;BME280;49810;48.160;10.812;2022-11-28T11:57:05;94939.81;;;6.41;74.93
47750;BME280;49810;48.160;10.812;2022-11-28T12:00:01;94952.75;;;6.54;74.51
47750;BME280;49810;48.160;10.812;2022-11-28T12:02:43;94945.19;;;6.46;74.32
47750;BME280;49810;48.160;10.812;2022-11-28T12:05:17;94954.56;;;6.42;74.34
47750;BME280;49810;48.160;10.812;2022-11-28T12:07:53;94957.78;;;6.55;74.06
47750;BME280;49810;48.160;10.812;2022-11-28T12:10:27;94952.53;;;6.67;73.39
47750;BME280;49810;48.160;10.812;2022-11-28T12:12:56;94952.97;;;6.52;74.80
47750;BME280;49810;48.160;10.812;2022-11-28T12:15:33;94959.38;;;6.68;74.65
47750;BME280;49810;48.160;10.812;2022-11-28T12:18:18;94950.91;;;6.31;75.57
47750;BME280;49810;48.160;10.812;2022-11-28T12:21:08;94943.75;;;6.09;77.33
47750;BME280;49810;48.160;10.812;2022-11-28T12:24:02;94944.78;;;6.08;77.44
47750;BME280;49810;48.160;10.812;2022-11-28T12:26:41;94946.41;;;6.20;77.26
47750;BME280;49810;48.160;10.812;2022-11-28T12:29:31;94949.22;;;6.48;76.87
47750;BME280;49810;48.160;10.812;2022-11-28T12:32:23;94940.09;;;6.51;76.72
47750;BME280;49810;48.160;10.812;2022-11-28T12:35:26;94936.66;;;6.50;76.40
47750;BME280;49810;48.160;10.812;2022-11-28T12:38:01;94937.22;;;6.75;76.23
47750;BME280;49810;48.160;10.812;2022-11-28T12:40:46;94927.97;;;6.61;76.88
47750;BME280;49810;48.160;10.812;2022-11-28T12:43:29;94938.72;;;6.60;78.03
47750;BME280;49810;48.160;10.812;2022-11-28T12:46:18;94904.81;;;6.70;78.26
47750;BME280;49810;48.160;10.812;2022-11-28T12:49:01;94919.06;;;6.39;79.56
47750;BME280;49810;48.160;10.812;2022-11-28T12:51:49;94942.13;;;6.60;79.73
47750;BME280;49810;48.160;10.812;2022-11-28T12:54:49;94937.81;;;6.54;79.48
47750;BME280;49810;48.160;10.812;2022-11-28T12:57:25;94934.16;;;6.67;78.69
47750;BME280;49810;48.160;10.812;2022-11-28T13:00:03;94936.63;;;6.39;79.42
47750;BME280;49810;48.160;10.812;2022-11-28T13:02:43;94936.75;;;6.44;79.72
47750;BME280;49810;48.160;10.812;2022-11-28T13:05:27;94933.81;;;6.52;79.67
47750;BME280;49810;48.160;10.812;2022-11-28T13:08:28;94934.84;;;6.51;80.48
47750;BME280;49810;48.160;10.812;2022-11-28T13:11:11;94918.97;;;6.57;80.19
47750;BME280;49810;48.160;10.812;2022-11-28T13:13:46;94921.13;;;6.49;80.20
47750;BME280;49810;48.160;10.812;2022-11-28T13:16:28;94932.31;;;6.79;79.86
47750;BME280;49810;48.160;10.812;2022-11-28T13:19:29;94898.19;;;6.67;79.66
47750;BME280;49810;48.160;10.812;2022-11-28T13:22:05;94924.31;;;6.97;79.57
47750;BME280;49810;48.160;10.812;2022-11-28T13:24:40;94930.47;;;6.91;79.90
47750;BME280;49810;48.160;10.812;2022-11-28T13:27:15;94926.25;;;6.90;79.67
47750;BME280;49810;48.160;10.812;2022-11-28T13:30:02;94915.75;;;6.78;79.99
47750;BME280;49810;48.160;10.812;2022-11-28T13:32:40;94910.72;;;6.77;80.13
47750;BME280;49810;48.160;10.812;2022-11-28T13:35:14;94930.03;;;6.82;80.15
47750;BME280;49810;48.160;10.812;2022-11-28T13:37:46;94925.81;;;6.70;80.74